createdAt,value
2019-02-19T00:00:32.301Z,16.97
2019-02-19T00:02:58.902Z,16.90
2019-02-19T00:05:25.451Z,17.43
2019-02-19T00:07:51.934Z,17.57
2019-02-19T00:10:18.459Z,17.43
2019-02-19T00:12:44.868Z,17.90
2019-02-19T00:15:11.477Z,18.03
2019-02-19T00:17:37.931Z,17.13
2019-02-19T00:20:04.431Z,18.57
2019-02-19T00:22:31.037Z,17.63
2019-02-19T00:24:57.547Z,17.13
2019-02-19T00:27:24.142Z,18.50
2019-02-19T00:29:50.461Z,18.90
2019-02-19T00:32:17.052Z,18.07
2019-02-19T00:34:43.599Z,17.20
2019-02-19T00:37:10.065Z,17.20
2019-02-19T00:39:36.563Z,17.37
2019-02-19T00:42:03.199Z,17.70
2019-02-19T00:44:29.809Z,18.40
2019-02-19T00:46:56.316Z,18.07
2019-02-19T00:49:22.913Z,16.47
2019-02-19T00:51:49.508Z,17.60
2019-02-19T00:54:16.093Z,16.00
2019-02-19T00:56:42.495Z,17.00
2019-02-19T00:59:08.863Z,16.13
2019-02-19T01:01:35.373Z,16.00
2019-02-19T01:04:01.971Z,17.23
2019-02-19T01:06:28.573Z,15.67
2019-02-19T01:08:55.128Z,16.30
2019-02-19T01:11:21.649Z,15.60
2019-02-19T01:13:48.034Z,16.20
2019-02-19T01:16:14.646Z,16.10
2019-02-19T01:18:41.226Z,14.73
2019-02-19T01:21:07.866Z,13.83
2019-02-19T01:23:34.430Z,14.53
2019-02-19T01:26:01.115Z,15.20
2019-02-19T01:28:27.642Z,14.93
2019-02-19T01:30:54.367Z,15.00
2019-02-19T01:33:21.695Z,15.83
2019-02-19T01:35:48.228Z,14.40
2019-02-19T01:38:14.751Z,14.20
2019-02-19T01:40:41.295Z,14.97
2019-02-19T01:43:09.622Z,15.07
2019-02-19T01:45:36.169Z,14.53
2019-02-19T01:48:02.702Z,14.40
2019-02-19T01:50:29.163Z,14.53
2019-02-19T01:52:55.464Z,14.67
2019-02-19T01:55:21.953Z,13.10
2019-02-19T01:57:48.448Z,15.20
2019-02-19T02:00:14.936Z,15.20
2019-02-19T02:02:41.422Z,14.53
2019-02-19T02:05:08.222Z,13.90
2019-02-19T02:07:34.593Z,16.10
2019-02-19T02:10:01.155Z,14.70
2019-02-19T02:12:27.544Z,13.73
2019-02-19T02:14:53.930Z,13.83
2019-02-19T02:17:20.588Z,15.10
2019-02-19T02:19:47.027Z,14.97
2019-02-19T02:22:13.762Z,14.83
2019-02-19T02:24:40.278Z,15.00
2019-02-19T02:27:06.750Z,15.23
2019-02-19T02:29:33.180Z,13.93
2019-02-19T02:31:59.595Z,15.33
2019-02-19T02:34:26.124Z,14.93
2019-02-19T02:36:52.518Z,14.07
2019-02-19T02:39:18.907Z,16.33
2019-02-19T02:41:45.201Z,14.90
2019-02-19T02:44:11.525Z,16.60
2019-02-19T02:46:37.931Z,15.30
2019-02-19T02:49:04.551Z,15.90
2019-02-19T02:51:31.017Z,15.20
2019-02-19T02:53:57.521Z,17.80
2019-02-19T02:56:24.068Z,16.80
2019-02-19T02:58:50.356Z,15.40
2019-02-19T03:01:17.043Z,16.37
2019-02-19T03:03:43.636Z,16.37
2019-02-19T03:06:23.922Z,17.77
2019-02-19T03:08:52.002Z,16.70
2019-02-19T03:11:18.491Z,17.30
2019-02-19T03:13:44.867Z,17.13
2019-02-19T03:16:11.379Z,15.67
2019-02-19T03:18:39.764Z,18.03
2019-02-19T03:21:06.165Z,16.73
2019-02-19T03:23:32.644Z,17.60
2019-02-19T03:25:59.071Z,17.57
2019-02-19T03:28:25.581Z,16.13
2019-02-19T03:30:52.126Z,16.70
2019-02-19T03:33:18.684Z,17.10
2019-02-19T03:35:45.329Z,17.60
2019-02-19T03:38:11.783Z,16.43
2019-02-19T03:40:38.293Z,16.57
2019-02-19T03:43:04.763Z,17.20
2019-02-19T03:45:31.162Z,18.20
2019-02-19T03:47:57.654Z,18.23
2019-02-19T03:50:24.138Z,17.87
2019-02-19T03:52:50.546Z,18.23
2019-02-19T03:55:17.104Z,18.83
2019-02-19T03:57:43.649Z,18.63
2019-02-19T04:00:10.179Z,18.10
2019-02-19T04:02:36.704Z,18.73
2019-02-19T04:05:03.794Z,19.13
2019-02-19T04:07:30.065Z,19.73
2019-02-19T04:09:56.620Z,18.40
2019-02-19T04:12:23.114Z,18.40
2019-02-19T04:14:49.515Z,18.50
2019-02-19T04:17:16.011Z,20.30
2019-02-19T04:19:42.796Z,20.97
2019-02-19T04:22:09.379Z,21.33
2019-02-19T04:24:35.921Z,19.47
2019-02-19T04:27:03.331Z,19.43
2019-02-19T04:29:29.926Z,19.50
2019-02-19T04:31:56.370Z,20.97
2019-02-19T04:34:22.931Z,21.67
2019-02-19T04:36:49.412Z,19.70
2019-02-19T04:39:15.823Z,19.90
2019-02-19T04:41:42.206Z,19.37
2019-02-19T04:44:08.614Z,20.20
2019-02-19T04:46:35.166Z,19.23
2019-02-19T04:49:01.809Z,20.43
2019-02-19T04:51:28.222Z,21.73
2019-02-19T04:53:54.707Z,21.63
2019-02-19T04:56:21.115Z,20.17
2019-02-19T04:58:47.732Z,20.60
2019-02-19T05:01:14.269Z,19.83
2019-02-19T05:03:40.914Z,18.80
2019-02-19T05:06:07.562Z,19.03
2019-02-19T05:08:34.064Z,20.57
2019-02-19T05:11:00.566Z,20.40
2019-02-19T05:13:27.028Z,20.73
2019-02-19T05:15:53.622Z,20.00
2019-02-19T05:18:20.004Z,20.33
2019-02-19T05:20:46.404Z,18.67
2019-02-19T05:23:12.904Z,20.90
2019-02-19T05:25:39.612Z,20.70
2019-02-19T05:28:07.915Z,21.60
2019-02-19T05:30:34.511Z,20.07
2019-02-19T05:33:00.930Z,19.63
2019-02-19T05:35:27.437Z,21.70
2019-02-19T05:37:54.043Z,21.87
2019-02-19T05:40:20.842Z,20.80
2019-02-19T05:42:47.319Z,20.30
2019-02-19T05:45:13.937Z,21.77
2019-02-19T05:47:40.492Z,20.20
2019-02-19T05:50:08.143Z,20.47
2019-02-19T05:52:34.722Z,21.13
2019-02-19T05:55:01.223Z,20.27
2019-02-19T05:57:27.750Z,20.97
2019-02-19T05:59:54.175Z,21.43
2019-02-19T06:02:22.508Z,21.73
2019-02-19T06:04:49.002Z,21.57
2019-02-19T06:07:15.553Z,21.90
2019-02-19T06:09:42.095Z,20.77
2019-02-19T06:12:08.672Z,22.30
2019-02-19T06:14:35.342Z,22.77
2019-02-19T06:17:01.875Z,22.80
2019-02-19T06:19:28.434Z,21.10
2019-02-19T06:21:55.078Z,21.00
2019-02-19T06:24:23.003Z,22.20
2019-02-19T06:26:49.584Z,24.13
2019-02-19T06:29:16.205Z,22.30
2019-02-19T06:31:42.670Z,23.37
2019-02-19T06:34:09.282Z,21.67
2019-02-19T06:36:35.828Z,22.80
2019-02-19T06:39:03.991Z,21.13
2019-02-19T06:41:30.586Z,22.37
2019-02-19T06:43:57.218Z,23.13
2019-02-19T06:46:23.687Z,22.43
2019-02-19T06:48:50.153Z,24.30
2019-02-19T06:51:16.793Z,21.20
2019-02-19T06:53:43.438Z,22.03
2019-02-19T06:56:09.835Z,22.63
2019-02-19T06:58:36.355Z,22.87
2019-02-19T07:01:03.206Z,22.67
2019-02-19T07:03:31.738Z,21.03
2019-02-19T07:05:58.414Z,22.80
2019-02-19T07:08:24.930Z,22.20
2019-02-19T07:10:51.421Z,22.57
2019-02-19T07:13:17.926Z,22.37
2019-02-19T07:15:44.580Z,22.37
2019-02-19T07:18:11.019Z,22.30
2019-02-19T07:20:37.593Z,22.70
2019-02-19T07:23:04.122Z,21.37
2019-02-19T07:25:30.695Z,22.43
2019-02-19T07:27:57.277Z,23.77
2019-02-19T07:30:23.797Z,22.17
2019-02-19T07:32:50.449Z,23.33
2019-02-19T07:35:17.108Z,22.33
2019-02-19T07:37:43.631Z,22.07
2019-02-19T07:40:10.657Z,22.97
2019-02-19T07:42:37.242Z,21.23
2019-02-19T07:45:09.303Z,21.93
2019-02-19T07:47:36.002Z,20.60
2019-02-19T07:50:04.163Z,20.90
2019-02-19T07:52:30.721Z,20.77
2019-02-19T07:54:57.294Z,22.87
2019-02-19T07:57:23.881Z,21.30
2019-02-19T07:59:50.444Z,22.77
2019-02-19T08:02:16.993Z,19.27
2019-02-19T08:04:43.588Z,21.03
2019-02-19T08:07:10.150Z,22.93
2019-02-19T08:09:36.656Z,19.10
2019-02-19T08:12:03.298Z,21.50
2019-02-19T08:14:29.699Z,20.53
2019-02-19T08:16:56.200Z,18.77
2019-02-19T08:19:22.629Z,19.93
2019-02-19T08:21:48.915Z,19.57
2019-02-19T08:24:15.403Z,19.90
2019-02-19T08:26:41.905Z,18.17
2019-02-19T08:29:13.695Z,18.37
2019-02-19T08:31:36.872Z,20.20
2019-02-19T08:34:03.334Z,18.07
2019-02-19T08:36:29.921Z,20.10
2019-02-19T08:38:56.552Z,17.80
2019-02-19T08:41:23.082Z,16.93
2019-02-19T08:43:49.358Z,16.43
2019-02-19T08:46:15.632Z,16.17
2019-02-19T08:48:42.081Z,17.73
2019-02-19T08:51:08.558Z,16.17
2019-02-19T08:53:36.527Z,16.30
2019-02-19T08:56:03.052Z,16.83
2019-02-19T08:58:29.666Z,15.80
2019-02-19T09:00:56.175Z,15.97
2019-02-19T09:03:22.562Z,18.27
2019-02-19T09:05:49.034Z,15.33
2019-02-19T09:08:15.665Z,16.13
2019-02-19T09:10:42.113Z,16.07
2019-02-19T09:13:08.645Z,17.03
2019-02-19T09:15:36.022Z,15.87
2019-02-19T09:18:02.807Z,15.57
2019-02-19T09:20:29.309Z,14.87
2019-02-19T09:22:55.948Z,15.53
2019-02-19T09:25:22.922Z,14.83
2019-02-19T09:27:49.202Z,14.60
2019-02-19T09:30:15.763Z,14.23
2019-02-19T09:32:42.138Z,14.33
2019-02-19T09:35:08.696Z,13.30
2019-02-19T09:37:35.131Z,14.43
2019-02-19T09:40:02.043Z,14.67
2019-02-19T09:42:28.465Z,14.57
2019-02-19T09:44:55.296Z,13.00
2019-02-19T09:47:21.834Z,12.40
2019-02-19T09:49:48.316Z,13.47
2019-02-19T09:52:14.826Z,14.53
2019-02-19T09:54:42.278Z,12.87
2019-02-19T09:57:08.964Z,12.70
2019-02-19T09:59:35.430Z,12.97
2019-02-19T10:02:02.071Z,13.53
2019-02-19T10:04:28.600Z,11.63
2019-02-19T10:06:55.205Z,13.30
2019-02-19T10:09:21.650Z,13.20
2019-02-19T10:11:48.186Z,11.53
2019-02-19T10:14:14.672Z,12.10
2019-02-19T10:16:42.008Z,13.93
2019-02-19T10:19:08.728Z,14.10
2019-02-19T10:21:35.120Z,13.97
2019-02-19T10:24:01.651Z,12.23
2019-02-19T10:26:28.271Z,12.60
2019-02-19T10:28:54.668Z,13.20
2019-02-19T10:31:21.156Z,13.20
2019-02-19T10:33:47.706Z,12.13
2019-02-19T10:36:14.557Z,12.00
2019-02-19T10:38:41.159Z,12.40
2019-02-19T10:41:07.622Z,12.37
2019-02-19T10:43:34.226Z,12.17
2019-02-19T10:46:00.610Z,11.20
2019-02-19T10:48:27.206Z,11.57
2019-02-19T10:50:53.888Z,12.00
2019-02-19T10:53:20.644Z,12.63
2019-02-19T10:55:47.150Z,12.90
2019-02-19T10:58:22.233Z,12.60
2019-02-19T11:00:42.053Z,11.63
2019-02-19T11:03:08.771Z,11.93
2019-02-19T11:05:35.280Z,11.97
2019-02-19T11:08:03.203Z,11.40
2019-02-19T11:10:29.533Z,12.80
2019-02-19T11:12:56.026Z,11.40
2019-02-19T11:15:22.645Z,14.20
2019-02-19T11:17:50.219Z,11.20
2019-02-19T11:20:19.907Z,11.27
2019-02-19T11:22:46.284Z,12.40
2019-02-19T11:25:12.971Z,11.63
2019-02-19T11:27:39.638Z,10.77
2019-02-19T11:30:09.810Z,13.30
2019-02-19T11:32:36.717Z,11.70
2019-02-19T11:35:05.301Z,10.77
2019-02-19T11:37:31.856Z,11.20
2019-02-19T11:39:58.266Z,11.77
2019-02-19T11:42:24.739Z,12.33
2019-02-19T11:44:51.420Z,11.47
2019-02-19T11:47:26.328Z,10.23
2019-02-19T11:49:46.297Z,10.90
2019-02-19T11:52:12.883Z,11.00
2019-02-19T11:54:39.332Z,11.73
2019-02-19T11:57:05.827Z,10.67
2019-02-19T11:59:32.262Z,9.80
2019-02-19T12:01:59.683Z,9.40
2019-02-19T12:04:26.151Z,10.10
2019-02-19T12:06:52.615Z,10.57
2019-02-19T12:09:20.482Z,10.07
2019-02-19T12:11:47.175Z,10.03
2019-02-19T12:14:13.660Z,10.13
2019-02-19T12:16:40.269Z,9.50
2019-02-19T12:19:07.043Z,9.97
2019-02-19T12:21:33.695Z,9.60
2019-02-19T12:24:00.391Z,9.73
2019-02-19T12:26:26.888Z,9.13
2019-02-19T12:28:53.154Z,10.00
2019-02-19T12:31:21.253Z,9.90
2019-02-19T12:33:48.442Z,10.10
2019-02-19T12:36:14.920Z,8.73
2019-02-19T12:38:41.503Z,9.27
2019-02-19T12:41:08.175Z,8.37
2019-02-19T12:43:34.532Z,9.67
2019-02-19T12:46:00.880Z,9.83
2019-02-19T12:48:27.238Z,9.17
2019-02-19T12:50:54.455Z,8.60
2019-02-19T12:53:22.898Z,8.03
2019-02-19T12:55:49.379Z,7.63
2019-02-19T12:58:15.914Z,7.47
2019-02-19T13:00:42.565Z,9.00
2019-02-19T13:03:09.148Z,7.83
2019-02-19T13:05:35.850Z,9.03
2019-02-19T13:08:02.312Z,8.70
2019-02-19T13:10:28.780Z,7.07
2019-02-19T13:12:55.410Z,6.90
2019-02-19T13:15:22.168Z,7.57
2019-02-19T13:17:48.481Z,8.13
2019-02-19T13:20:15.054Z,7.03
2019-02-19T13:22:44.289Z,7.83
2019-02-19T13:25:12.252Z,7.90
2019-02-19T13:27:38.876Z,8.07
2019-02-19T13:30:11.926Z,7.47
2019-02-19T13:32:38.247Z,7.23
2019-02-19T13:35:06.838Z,7.13
2019-02-19T13:37:33.445Z,7.13
2019-02-19T13:39:59.804Z,7.10
2019-02-19T13:42:26.308Z,7.03
2019-02-19T13:44:52.687Z,7.77
2019-02-19T13:47:19.116Z,7.20
2019-02-19T13:49:45.626Z,6.77
2019-02-19T13:52:22.237Z,7.87
2019-02-19T13:54:42.627Z,7.17
2019-02-19T13:57:09.122Z,7.73
2019-02-19T13:59:35.637Z,7.13
2019-02-19T14:02:02.250Z,8.50
2019-02-19T14:04:28.918Z,8.33
2019-02-19T14:06:55.288Z,7.83
2019-02-19T14:09:21.778Z,8.17
2019-02-19T14:11:48.174Z,8.40
2019-02-19T14:14:16.646Z,7.63
2019-02-19T14:16:52.086Z,8.00
2019-02-19T14:19:21.555Z,8.07
2019-02-19T14:21:52.581Z,9.97
2019-02-19T14:24:23.775Z,7.80
2019-02-19T14:26:54.704Z,7.60
2019-02-19T14:29:39.470Z,8.13
2019-02-19T14:32:07.862Z,7.80
2019-02-19T14:34:52.750Z,7.97
2019-02-19T14:37:21.119Z,6.87
2019-02-19T14:40:10.274Z,8.83
2019-02-19T14:42:50.706Z,6.73
2019-02-19T14:45:36.991Z,6.63
2019-02-19T14:48:21.990Z,5.90
2019-02-19T14:51:08.752Z,6.20
2019-02-19T14:53:42.754Z,6.27
2019-02-19T14:56:28.152Z,6.53
2019-02-19T14:59:12.212Z,5.63
2019-02-19T15:01:44.568Z,6.43
2019-02-19T15:04:16.664Z,6.17
2019-02-19T15:06:44.934Z,5.73
2019-02-19T15:09:14.226Z,6.03
2019-02-19T15:11:48.530Z,6.13
2019-02-19T15:14:33.085Z,5.73
2019-02-19T15:17:13.193Z,5.73
2019-02-19T15:19:53.116Z,4.67
2019-02-19T15:22:30.062Z,5.00
2019-02-19T15:25:04.004Z,5.90
2019-02-19T15:27:49.038Z,5.67
2019-02-19T15:30:20.263Z,5.00
2019-02-19T15:32:48.699Z,5.70
2019-02-19T15:35:34.889Z,5.73
2019-02-19T15:38:03.323Z,4.80
2019-02-19T15:40:31.589Z,5.07
2019-02-19T15:43:16.687Z,5.50
2019-02-19T15:45:53.655Z,5.23
2019-02-19T15:48:38.139Z,4.47
2019-02-19T15:51:18.290Z,3.87
2019-02-19T15:53:46.715Z,3.80
2019-02-19T15:56:20.954Z,5.10
2019-02-19T15:58:51.853Z,5.37
2019-02-19T16:01:23.053Z,3.63
2019-02-19T16:04:07.387Z,4.17
2019-02-19T16:06:35.785Z,3.33
2019-02-19T16:09:05.381Z,2.93
2019-02-19T16:11:36.579Z,3.03
2019-02-19T16:14:21.518Z,3.80
2019-02-19T16:16:49.926Z,3.30
2019-02-19T16:19:30.253Z,3.63
2019-02-19T16:22:15.042Z,3.50
2019-02-19T16:24:46.049Z,3.60
2019-02-19T16:27:16.939Z,3.37
2019-02-19T16:29:45.380Z,4.33
2019-02-19T16:32:29.853Z,3.90
2019-02-19T16:35:06.832Z,4.03
2019-02-19T16:37:35.256Z,2.97
2019-02-19T16:40:18.638Z,3.87
2019-02-19T16:43:06.455Z,2.83
2019-02-19T16:45:43.560Z,2.73
2019-02-19T16:48:26.566Z,3.23
2019-02-19T16:50:55.093Z,4.07
2019-02-19T16:53:35.256Z,3.50
2019-02-19T16:56:03.679Z,3.73
2019-02-19T16:58:35.378Z,2.73
2019-02-19T17:01:07.089Z,3.00
2019-02-19T17:03:35.503Z,3.60
2019-02-19T17:06:09.638Z,3.90
2019-02-19T17:08:40.631Z,3.00
2019-02-19T17:11:25.508Z,2.93
2019-02-19T17:14:01.648Z,2.73
2019-02-19T17:16:32.652Z,2.93
2019-02-19T17:19:00.939Z,2.93
2019-02-19T17:21:35.340Z,2.60
2019-02-19T17:24:12.357Z,2.63
2019-02-19T17:26:43.536Z,2.33
2019-02-19T17:29:23.994Z,2.37
2019-02-19T17:31:52.451Z,2.57
2019-02-19T17:34:24.115Z,2.70
2019-02-19T17:36:55.386Z,2.80
2019-02-19T17:39:32.589Z,2.40
2019-02-19T17:42:18.945Z,3.20
2019-02-19T17:44:47.272Z,3.60
2019-02-19T17:47:15.459Z,3.13
2019-02-19T17:49:52.425Z,2.73
2019-02-19T17:52:36.979Z,2.63
2019-02-19T17:55:05.665Z,3.10
2019-02-19T17:57:48.775Z,2.60
2019-02-19T18:00:20.055Z,2.97
2019-02-19T18:02:57.282Z,2.40
2019-02-19T18:05:31.512Z,2.47
2019-02-19T18:08:02.638Z,2.30
2019-02-19T18:10:33.814Z,1.93
2019-02-19T18:13:07.606Z,2.83
2019-02-19T18:15:51.018Z,2.10
2019-02-19T18:18:19.465Z,1.97
2019-02-19T18:20:47.761Z,2.13
2019-02-19T18:23:14.623Z,2.27
2019-02-19T18:25:41.294Z,1.70
2019-02-19T18:28:07.818Z,1.90
2019-02-19T18:30:34.181Z,2.13
2019-02-19T18:33:01.034Z,1.80
2019-02-19T18:35:27.630Z,2.33
2019-02-19T18:37:54.106Z,2.30
2019-02-19T18:40:20.481Z,2.20
2019-02-19T18:42:47.163Z,1.80
2019-02-19T18:45:13.770Z,1.67
2019-02-19T18:47:40.249Z,1.90
2019-02-19T18:50:08.042Z,1.70
2019-02-19T18:52:34.543Z,1.80
2019-02-19T18:55:00.937Z,2.10
2019-02-19T18:57:27.566Z,2.17
2019-02-19T18:59:53.961Z,1.97
2019-02-19T19:02:20.629Z,2.17
2019-02-19T19:04:47.298Z,2.30
2019-02-19T19:07:15.607Z,2.30
2019-02-19T19:09:42.110Z,2.23
2019-02-19T19:12:08.598Z,2.77
2019-02-19T19:14:34.999Z,2.40
2019-02-19T19:17:01.538Z,2.50
2019-02-19T19:19:28.160Z,1.67
2019-02-19T19:21:54.438Z,1.77
2019-02-19T19:24:20.957Z,1.60
2019-02-19T19:26:47.257Z,2.03
2019-02-19T19:29:13.627Z,2.00
2019-02-19T19:31:40.123Z,2.00
2019-02-19T19:34:06.451Z,1.83
2019-02-19T19:36:32.922Z,2.03
2019-02-19T19:38:59.328Z,2.17
2019-02-19T19:41:36.110Z,1.90
2019-02-19T19:44:02.540Z,2.23
2019-02-19T19:46:29.049Z,1.80
2019-02-19T19:48:55.344Z,2.23
2019-02-19T19:51:21.873Z,1.67
2019-02-19T19:53:49.912Z,2.13
2019-02-19T19:56:16.551Z,1.93
2019-02-19T19:58:43.097Z,2.30
2019-02-19T20:01:09.599Z,2.47
2019-02-19T20:03:36.038Z,1.70
2019-02-19T20:06:02.645Z,2.00
2019-02-19T20:08:29.029Z,2.43
2019-02-19T20:10:55.539Z,1.77
2019-02-19T20:13:21.820Z,1.90
2019-02-19T20:15:48.576Z,2.47
2019-02-19T20:18:14.993Z,1.60
2019-02-19T20:20:41.603Z,2.23
2019-02-19T20:23:08.051Z,2.70
2019-02-19T20:25:34.671Z,2.47
2019-02-19T20:28:01.352Z,1.90
2019-02-19T20:30:27.837Z,2.07
2019-02-19T20:32:56.682Z,2.33
2019-02-19T20:35:25.114Z,2.70
2019-02-19T20:37:53.986Z,2.03
2019-02-19T20:40:19.820Z,2.40
2019-02-19T20:42:46.316Z,2.07
2019-02-19T20:45:12.724Z,2.93
2019-02-19T20:47:39.204Z,2.17
2019-02-19T20:50:10.706Z,1.83
2019-02-19T20:52:37.202Z,3.13
2019-02-19T20:55:06.121Z,1.90
2019-02-19T20:57:32.524Z,1.93
2019-02-19T20:59:59.379Z,3.00
2019-02-19T21:02:26.042Z,1.67
2019-02-19T21:04:52.466Z,2.97
2019-02-19T21:07:18.895Z,2.17
2019-02-19T21:09:45.231Z,2.10
2019-02-19T21:12:11.698Z,1.93
2019-02-19T21:14:38.176Z,1.40
2019-02-19T21:17:04.665Z,1.87
2019-02-19T21:19:31.347Z,1.70
2019-02-19T21:21:57.861Z,2.03
2019-02-19T21:24:24.182Z,1.70
2019-02-19T21:26:50.820Z,3.10
2019-02-19T21:29:17.308Z,2.00
2019-02-19T21:31:43.767Z,1.67
2019-02-19T21:34:10.233Z,2.37
2019-02-19T21:36:36.634Z,1.83
2019-02-19T21:39:04.865Z,1.63
2019-02-19T21:41:31.654Z,2.00
2019-02-19T21:43:58.337Z,1.90
2019-02-19T21:46:24.960Z,2.00
2019-02-19T21:48:53.910Z,2.07
2019-02-19T21:51:22.309Z,2.27
2019-02-19T21:53:50.656Z,2.57
2019-02-19T21:56:25.250Z,2.53
2019-02-19T21:58:51.625Z,2.27
2019-02-19T22:01:18.020Z,1.53
2019-02-19T22:03:44.607Z,2.70
2019-02-19T22:06:11.272Z,1.80
2019-02-19T22:08:37.754Z,1.70
2019-02-19T22:11:06.059Z,2.00
2019-02-19T22:13:32.443Z,1.60
2019-02-19T22:15:59.093Z,2.07
2019-02-19T22:18:25.816Z,2.30
2019-02-19T22:20:57.001Z,2.27
2019-02-19T22:23:23.436Z,2.07
2019-02-19T22:25:49.854Z,2.27
2019-02-19T22:28:16.347Z,1.60
2019-02-19T22:30:42.864Z,2.43
2019-02-19T22:33:09.322Z,1.87
2019-02-19T22:35:35.813Z,2.40
2019-02-19T22:38:02.352Z,2.27
2019-02-19T22:40:28.710Z,2.40
2019-02-19T22:42:55.101Z,2.10
2019-02-19T22:45:21.516Z,1.70
2019-02-19T22:47:53.467Z,2.47
2019-02-19T22:50:17.271Z,2.27
2019-02-19T22:52:43.896Z,2.53
2019-02-19T22:55:12.412Z,2.20
2019-02-19T22:57:38.906Z,1.87
2019-02-19T23:00:10.857Z,1.67
2019-02-19T23:02:37.451Z,1.97
2019-02-19T23:05:05.326Z,2.00
2019-02-19T23:07:31.873Z,2.40
2019-02-19T23:09:58.313Z,1.80
2019-02-19T23:12:24.716Z,2.43
2019-02-19T23:14:51.104Z,1.87
2019-02-19T23:17:17.674Z,2.30
2019-02-19T23:19:44.481Z,2.63
2019-02-19T23:22:10.986Z,2.10
2019-02-19T23:24:37.496Z,2.30
2019-02-19T23:27:03.963Z,1.70
2019-02-19T23:29:30.498Z,1.57
2019-02-19T23:31:57.007Z,1.77
2019-02-19T23:34:23.412Z,2.23
2019-02-19T23:36:52.778Z,2.03
2019-02-19T23:39:19.279Z,2.40
2019-02-19T23:41:51.623Z,1.60
2019-02-19T23:44:18.118Z,2.43
2019-02-19T23:46:44.495Z,2.30
2019-02-19T23:49:10.758Z,2.27
2019-02-19T23:51:37.350Z,2.20
2019-02-19T23:54:03.855Z,1.67
2019-02-19T23:56:30.343Z,2.13
2019-02-19T23:58:56.838Z,2.23
